Talmo, Georgia
Current Conditions -  °F | °C
As of 5:53 PM on Wednesday 22 Oct 2014 (Local Time) from KGVL Reporting Station
Clear Clear  
Wind Chill: 68°   Ceiling: Unl
Heat Index: 68°   Visibility: 10mi
Dew Point: 38°   Wind: 6mph
Humidity: 33%   Direction: 260°W
Pressure: 30.06"   Gusts: NA
Location:  34.19°N, 83.72°W
Report Text: KGVL 222153Z AUTO 26005KT 10SM CLR 20/03 A3006 RMK AO2 SLP171 T02000033
Loading
Personal Weather Stations






























Interactive Weather Map
Tropical Storm Tracking
New forecast layout! Learn more

10-Day Weather Forecast

Advertisements
Track Severe Weather on mobile